Hauptseite
METAR-TAF:

METAR-TAF

Flughäfen :

Gafsa, Tunesien

Breite: 34-25N, Länge: 008-49E, Höhe: 313 m

Beobachtung

Neuester Wetterbericht von vor 1 Stunde und 2 Minuten, um 06:00 UTC
Wind 18 kt aus Nordost
Temperatur 12°C
Luftfeuchtigkeit 71%
Luftdruck 1017 hPa
Sichtweite: 8000 m
Aufgelockert bewölkt in der Höhe von 2600 ft

METAR: DTTF 090600Z 04018KT 8000 SCT026 12/07 Q1017 NOSIG

Zeit: 08:02 (07:02 UTC)

Prognose

Neuester Wetterbericht von vor 1 Stunde und 2 Minuten, um 06:00 UTC
Gültige Prognose vom 09 um 07 UTC bis 09 um 16 UTC
Wind 17 kt aus Nord/Nordost
Sichtweite: 8000 m
Aufgelockert bewölkt in der Höhe von 2600 ft
Übergehend zu
vom 09 um 10 UTC bis 09 um 12 UTC
Wind 10 kt aus Nordwest

TAF: DTTF 090600Z 0907/0916 03017KT 8000 SCT026 BECMG 0910/0912 32010KT

Wetterbeobachtungen und Prognosen von mehr als 4000 Flughäfen (METAR und TAF Bericht).

Die verfügbaren Stationen werden durch gelbe und rote Markierungen auf der Karte dargestellt.

Führen Sie die Maus auf sie, um den Namen der Station zu sehen.

Darauf klicken, um die Beobachtung von Wetterbeobachtungen und Prognosen zu sehen.

Um die Karte zu ändern : klicken Sie auf den grünen Tasten mit einem schwarzen Kreuz Zum Vergrößern, auf den grünen Button mit einem Gedankenstrich zu verkleinern, oder auf die grünen Pfeile für benachbarte Karten.


METAR-TAF: